createdAt,value
2018-02-19T00:02:09.115Z,65.20
2018-02-19T00:04:36.579Z,75.40
2018-02-19T00:07:04.062Z,63.90
2018-02-19T00:09:31.539Z,67.93
2018-02-19T00:11:59.125Z,63.87
2018-02-19T00:14:26.632Z,63.40
2018-02-19T00:16:54.105Z,56.60
2018-02-19T00:19:22.358Z,67.35
2018-02-19T00:21:49.838Z,75.97
2018-02-19T00:24:18.100Z,63.90
2018-02-19T00:26:46.339Z,66.80
2018-02-19T00:29:13.795Z,67.20
2018-02-19T00:31:41.306Z,66.57
2018-02-19T00:34:09.535Z,67.30
2018-02-19T00:36:37.019Z,76.97
2018-02-19T00:39:05.287Z,63.20
2018-02-19T00:41:32.760Z,63.08
2018-02-19T00:44:01.006Z,66.07
2018-02-19T00:46:28.472Z,68.00
2018-02-19T00:48:55.942Z,67.85
2018-02-19T00:51:24.215Z,64.72
2018-02-19T00:53:51.695Z,59.35
2018-02-19T00:56:19.927Z,70.35
2018-02-19T00:58:47.449Z,58.40
2018-02-19T01:01:14.906Z,58.35
2018-02-19T01:03:42.426Z,62.72
2018-02-19T01:06:10.688Z,62.33
2018-02-19T01:08:38.168Z,74.50
2018-02-19T01:11:06.472Z,69.75
2018-02-19T01:13:33.935Z,68.18
2018-02-19T01:16:01.403Z,70.70
2018-02-19T01:18:28.901Z,65.00
2018-02-19T01:20:56.613Z,68.82
2018-02-19T01:23:24.070Z,61.95
2018-02-19T01:25:51.558Z,67.25
2018-02-19T01:28:19.035Z,64.30
2018-02-19T01:30:47.286Z,77.70
2018-02-19T01:33:14.782Z,65.47
2018-02-19T01:35:42.998Z,69.30
2018-02-19T01:38:10.504Z,68.60
2018-02-19T01:40:38.743Z,70.82
2018-02-19T01:43:06.230Z,62.90
2018-02-19T01:45:34.472Z,71.72
2018-02-19T01:48:01.945Z,72.12
2018-02-19T01:50:29.430Z,68.15
2018-02-19T01:52:57.662Z,65.45
2018-02-19T01:55:25.139Z,63.22
2018-02-19T01:57:52.624Z,58.92
2018-02-19T02:00:20.100Z,68.62
2018-02-19T02:02:47.570Z,65.65
2018-02-19T02:05:15.059Z,73.28
2018-02-19T02:07:42.518Z,71.35
2018-02-19T02:10:10.019Z,74.40
2018-02-19T02:12:37.491Z,69.80
2018-02-19T02:15:04.992Z,64.95
2018-02-19T02:17:33.251Z,78.93
2018-02-19T02:20:00.733Z,75.22
2018-02-19T02:22:28.957Z,81.40
2018-02-19T02:24:56.454Z,71.00
2018-02-19T02:27:23.962Z,73.60
2018-02-19T02:29:51.438Z,74.20
2018-02-19T02:32:18.906Z,69.68
2018-02-19T02:34:46.380Z,61.85
2018-02-19T02:37:13.859Z,75.28
2018-02-19T02:39:42.095Z,69.78
2018-02-19T02:42:09.583Z,87.35
2018-02-19T02:44:37.834Z,72.68
2018-02-19T02:47:05.318Z,69.80
2018-02-19T02:49:33.551Z,72.75
2018-02-19T02:52:01.032Z,76.10
2018-02-19T02:54:28.518Z,61.28
2018-02-19T02:56:56.054Z,78.97
2018-02-19T02:59:23.530Z,86.07
2018-02-19T03:01:51.803Z,80.65
2018-02-19T03:04:20.027Z,74.65
2018-02-19T03:06:47.491Z,81.90
2018-02-19T03:09:14.984Z,75.97
2018-02-19T03:11:43.235Z,75.43
2018-02-19T03:14:10.804Z,81.55
2018-02-19T03:16:38.308Z,74.82
2018-02-19T03:19:05.766Z,81.37
2018-02-19T03:21:33.242Z,74.25
2018-02-19T03:24:00.755Z,81.40
2018-02-19T03:26:28.987Z,84.18
2018-02-19T03:28:56.462Z,83.50
2018-02-19T03:31:23.968Z,78.65
2018-02-19T03:33:51.430Z,78.25
2018-02-19T03:36:18.982Z,77.28
2018-02-19T03:38:46.471Z,78.22
2018-02-19T03:41:13.938Z,78.12
2018-02-19T03:43:41.403Z,89.72
2018-02-19T03:46:08.903Z,81.87
2018-02-19T03:48:36.379Z,80.57
2018-02-19T03:51:03.838Z,87.35
2018-02-19T03:53:31.381Z,78.20
2018-02-19T03:55:58.835Z,85.18
2018-02-19T03:58:26.303Z,80.22
2018-02-19T04:00:53.794Z,89.85
2018-02-19T04:03:21.264Z,88.22
2018-02-19T04:05:49.506Z,79.95
2018-02-19T04:08:16.991Z,84.93
2018-02-19T04:10:44.458Z,95.15
2018-02-19T04:13:12.771Z,99.60
2018-02-19T04:15:40.271Z,83.85
2018-02-19T04:18:07.723Z,90.68
2018-02-19T04:20:35.195Z,85.53
2018-02-19T04:23:02.695Z,86.75
2018-02-19T04:25:30.165Z,92.43
2018-02-19T04:27:57.627Z,84.97
2018-02-19T04:30:25.126Z,76.80
2018-02-19T04:32:53.372Z,76.60
2018-02-19T04:35:20.830Z,84.35
2018-02-19T04:37:48.322Z,84.50
2018-02-19T04:40:16.551Z,84.03
2018-02-19T04:42:44.031Z,80.12
2018-02-19T04:45:14.331Z,65.60
2018-02-19T04:47:41.798Z,74.35
2018-02-19T04:50:09.290Z,83.10
2018-02-19T04:52:37.521Z,80.38
2018-02-19T04:55:04.986Z,88.30
2018-02-19T04:57:32.467Z,90.12
2018-02-19T04:59:59.927Z,73.40
2018-02-19T05:02:28.191Z,94.87
2018-02-19T05:04:56.431Z,90.38
2018-02-19T05:07:23.895Z,66.30
2018-02-19T05:09:51.387Z,77.32
2018-02-19T05:12:18.849Z,75.37
2018-02-19T05:14:47.086Z,85.62
2018-02-19T05:17:14.570Z,82.75
2018-02-19T05:19:42.042Z,86.18
2018-02-19T05:22:10.278Z,71.90
2018-02-19T05:24:37.764Z,89.30
2018-02-19T05:27:08.147Z,89.22
2018-02-19T05:29:35.617Z,88.65
2018-02-19T05:32:03.114Z,83.35
2018-02-19T05:34:31.354Z,102.70
2018-02-19T05:36:58.855Z,81.90
2018-02-19T05:39:26.319Z,88.43
2018-02-19T05:41:53.800Z,87.05
2018-02-19T05:44:21.283Z,98.18
2018-02-19T05:46:48.864Z,85.32
2018-02-19T05:49:17.368Z,84.82
2018-02-19T05:51:45.624Z,80.28
2018-02-19T05:54:13.846Z,84.28
2018-02-19T05:56:41.321Z,74.32
2018-02-19T05:59:08.814Z,85.43
2018-02-19T06:01:37.054Z,69.00
2018-02-19T06:04:04.529Z,90.75
2018-02-19T06:06:32.020Z,73.80
2018-02-19T06:08:59.495Z,81.37
2018-02-19T06:11:26.983Z,83.90
2018-02-19T06:13:54.466Z,74.50
2018-02-19T06:16:21.931Z,85.72
2018-02-19T06:18:50.160Z,77.68
2018-02-19T06:21:17.662Z,76.03
2018-02-19T06:23:45.930Z,83.85
2018-02-19T06:26:14.175Z,82.85
2018-02-19T06:28:41.667Z,69.57
2018-02-19T06:31:09.902Z,72.93
2018-02-19T06:33:37.370Z,73.45
2018-02-19T06:36:04.869Z,88.30
2018-02-19T06:38:32.490Z,79.70
2018-02-19T06:40:59.959Z,87.72
2018-02-19T06:43:27.459Z,70.10
2018-02-19T06:45:54.930Z,72.15
2018-02-19T06:48:22.399Z,79.32
2018-02-19T06:50:49.882Z,62.97
2018-02-19T06:53:17.346Z,73.80
2018-02-19T06:55:45.612Z,77.78
2018-02-19T06:58:13.070Z,73.05
2018-02-19T07:00:40.545Z,73.45
2018-02-19T07:03:08.807Z,78.50
2018-02-19T07:05:36.282Z,67.87
2018-02-19T07:08:04.514Z,69.43
2018-02-19T07:10:32.007Z,73.62
2018-02-19T07:13:00.247Z,71.62
2018-02-19T07:15:27.726Z,67.10
2018-02-19T07:17:55.192Z,66.90
2018-02-19T07:20:23.432Z,66.95
2018-02-19T07:22:50.912Z,69.87
2018-02-19T07:25:18.397Z,72.75
2018-02-19T07:27:46.635Z,63.05
2018-02-19T07:30:14.123Z,71.20
2018-02-19T07:32:42.365Z,70.30
2018-02-19T07:35:09.830Z,67.90
2018-02-19T07:37:37.318Z,66.28
2018-02-19T07:40:05.293Z,62.53
2018-02-19T07:42:33.503Z,66.85
2018-02-19T07:45:00.986Z,70.35
2018-02-19T07:47:28.466Z,67.12
2018-02-19T07:49:56.698Z,66.85
2018-02-19T07:52:24.196Z,63.35
2018-02-19T07:54:52.429Z,69.32
2018-02-19T07:57:19.887Z,61.45
2018-02-19T07:59:47.385Z,74.47
2018-02-19T08:02:15.622Z,61.78
2018-02-19T08:04:43.094Z,64.60
2018-02-19T08:07:11.359Z,60.15
2018-02-19T08:09:38.878Z,64.60
2018-02-19T08:12:06.335Z,63.08
2018-02-19T08:14:33.823Z,53.63
2018-02-19T08:17:01.291Z,56.37
2018-02-19T08:19:28.774Z,59.22
2018-02-19T08:21:57.010Z,63.58
2018-02-19T08:24:24.536Z,62.88
2018-02-19T08:26:52.040Z,69.28
2018-02-19T08:29:19.511Z,61.70
2018-02-19T08:31:47.742Z,52.17
2018-02-19T08:34:15.225Z,63.47
2018-02-19T08:36:42.691Z,58.67
2018-02-19T08:39:10.927Z,63.10
2018-02-19T08:41:38.418Z,59.90
2018-02-19T08:44:05.906Z,60.72
2018-02-19T08:46:33.369Z,54.70
2018-02-19T08:49:00.868Z,54.75
2018-02-19T08:51:28.343Z,58.78
2018-02-19T08:53:56.593Z,48.35
2018-02-19T08:56:24.075Z,59.45
2018-02-19T08:58:51.562Z,57.45
2018-02-19T09:01:19.794Z,59.58
2018-02-19T09:03:48.242Z,57.17
2018-02-19T09:06:15.706Z,51.72
2018-02-19T09:08:43.175Z,51.42
2018-02-19T09:11:10.667Z,50.92
2018-02-19T09:13:38.907Z,47.75
2018-02-19T09:16:06.379Z,61.75
2018-02-19T09:18:33.858Z,56.75
2018-02-19T09:21:02.099Z,61.95
2018-02-19T09:23:29.570Z,55.22
2018-02-19T09:25:57.055Z,55.08
2018-02-19T09:28:25.315Z,64.30
2018-02-19T09:30:52.775Z,50.58
2018-02-19T09:33:21.027Z,58.75
2018-02-19T09:35:48.509Z,62.20
2018-02-19T09:38:16.747Z,60.35
2018-02-19T09:40:44.234Z,55.42
2018-02-19T09:43:12.483Z,61.85
2018-02-19T09:45:41.886Z,58.13
2018-02-19T09:48:09.416Z,55.97
2018-02-19T09:50:36.887Z,56.65
2018-02-19T09:53:04.367Z,59.58
2018-02-19T09:55:31.856Z,55.85
2018-02-19T09:57:59.326Z,49.22
2018-02-19T10:00:26.806Z,53.13
2018-02-19T10:02:54.302Z,54.10
2018-02-19T10:05:21.782Z,58.83
2018-02-19T10:07:49.255Z,52.75
2018-02-19T10:10:16.768Z,63.80
2018-02-19T10:12:44.231Z,64.30
2018-02-19T10:15:12.479Z,57.95
2018-02-19T10:17:39.970Z,58.67
2018-02-19T10:20:08.202Z,65.90
2018-02-19T10:22:35.692Z,55.47
2018-02-19T10:25:03.192Z,62.35
2018-02-19T10:27:30.663Z,51.92
2018-02-19T10:29:58.138Z,57.90
2018-02-19T10:32:25.643Z,56.58
2018-02-19T10:34:53.110Z,53.67
2018-02-19T10:37:20.595Z,56.42
2018-02-19T10:39:48.075Z,61.72
2018-02-19T10:42:15.549Z,62.85
2018-02-19T10:44:43.063Z,56.53
2018-02-19T10:47:10.531Z,52.20
2018-02-19T10:49:38.006Z,55.73
2018-02-19T10:52:05.501Z,61.17
2018-02-19T10:54:32.986Z,53.38
2018-02-19T10:57:00.459Z,62.45
2018-02-19T10:59:27.962Z,49.70
2018-02-19T11:01:56.195Z,56.73
2018-02-19T11:04:23.669Z,52.58
2018-02-19T11:06:51.194Z,59.63
2018-02-19T11:09:18.691Z,55.83
2018-02-19T11:11:46.165Z,56.67
2018-02-19T11:14:14.400Z,50.87
2018-02-19T11:16:41.894Z,57.13
2018-02-19T11:19:10.135Z,55.70
2018-02-19T11:21:37.615Z,58.27
2018-02-19T11:24:05.125Z,53.47
2018-02-19T11:26:32.581Z,59.90
2018-02-19T11:29:00.052Z,56.83
2018-02-19T11:31:27.530Z,53.43
2018-02-19T11:33:55.001Z,52.77
2018-02-19T11:36:22.513Z,48.53
2018-02-19T11:38:55.379Z,54.83
2018-02-19T11:41:17.448Z,56.30
2018-02-19T11:43:44.931Z,51.00
2018-02-19T11:46:13.163Z,59.37
2018-02-19T11:48:40.626Z,55.20
2018-02-19T11:51:08.120Z,57.30
2018-02-19T11:53:36.354Z,56.70
2018-02-19T11:56:03.846Z,54.47
2018-02-19T11:58:32.086Z,61.50
2018-02-19T12:00:59.552Z,51.00
2018-02-19T12:03:27.030Z,56.53
2018-02-19T12:05:54.516Z,51.73
2018-02-19T12:08:22.739Z,49.87
2018-02-19T12:10:50.221Z,50.00
2018-02-19T12:13:18.461Z,50.63
2018-02-19T12:15:45.925Z,43.90
2018-02-19T12:18:13.407Z,49.97
2018-02-19T12:20:40.871Z,53.93
2018-02-19T12:23:09.117Z,49.33
2018-02-19T12:25:36.610Z,40.87
2018-02-19T12:28:04.871Z,45.47
2018-02-19T12:30:32.430Z,49.00
2018-02-19T12:32:59.922Z,62.63
2018-02-19T12:35:27.416Z,51.17
2018-02-19T12:37:54.875Z,44.63
2018-02-19T12:40:22.405Z,38.50
2018-02-19T12:42:49.870Z,43.30
2018-02-19T12:45:17.338Z,44.30
2018-02-19T12:47:44.838Z,45.67
2018-02-19T12:50:13.075Z,51.30
2018-02-19T12:52:40.546Z,53.10
2018-02-19T12:55:08.018Z,45.13
2018-02-19T12:57:36.262Z,52.30
2018-02-19T13:00:03.734Z,45.77
2018-02-19T13:02:31.236Z,42.90
2018-02-19T13:04:58.763Z,49.60
2018-02-19T13:07:26.227Z,47.87
2018-02-19T13:09:58.132Z,43.47
2018-02-19T13:12:25.602Z,49.63
2018-02-19T13:14:53.086Z,50.93
2018-02-19T13:17:20.572Z,51.83
2018-02-19T13:19:48.802Z,45.50
2018-02-19T13:22:16.273Z,46.97
2018-02-19T13:24:43.770Z,40.57
2018-02-19T13:27:11.244Z,46.43
2018-02-19T13:29:38.719Z,45.30
2018-02-19T13:32:06.218Z,54.97
2018-02-19T13:34:34.451Z,44.87
2018-02-19T13:37:01.916Z,42.37
2018-02-19T13:39:29.399Z,51.63
2018-02-19T13:41:56.853Z,44.40
2018-02-19T13:44:24.311Z,51.10
2018-02-19T13:46:52.572Z,45.07
2018-02-19T13:49:20.035Z,53.20
2018-02-19T13:51:47.513Z,48.13
2018-02-19T13:54:15.747Z,47.33
2018-02-19T13:56:43.237Z,48.20
2018-02-19T13:59:11.470Z,45.57
2018-02-19T14:01:38.947Z,46.03
2018-02-19T14:04:06.423Z,48.40
2018-02-19T14:06:34.661Z,52.77
2018-02-19T14:09:02.150Z,48.07
2018-02-19T14:11:30.406Z,44.90
2018-02-19T14:13:57.871Z,45.87
2018-02-19T14:16:25.350Z,46.83
2018-02-19T14:18:53.598Z,58.90
2018-02-19T14:21:21.059Z,45.00
2018-02-19T14:23:48.533Z,49.57
2018-02-19T14:26:16.775Z,50.63
2018-02-19T14:28:44.251Z,43.97
2018-02-19T14:31:11.717Z,44.73
2018-02-19T14:33:39.213Z,47.20
2018-02-19T14:36:06.671Z,45.63
2018-02-19T14:38:34.157Z,48.70
2018-02-19T14:41:01.635Z,48.30
2018-02-19T14:43:29.098Z,43.97
2018-02-19T14:45:57.330Z,46.17
2018-02-19T14:48:24.845Z,46.43
2018-02-19T14:50:53.067Z,47.90
2018-02-19T14:53:22.183Z,41.27
2018-02-19T14:55:49.674Z,49.47
2018-02-19T14:58:17.903Z,40.47
2018-02-19T15:00:45.431Z,47.17
2018-02-19T15:03:12.907Z,49.73
2018-02-19T15:05:40.374Z,41.27
2018-02-19T15:08:07.870Z,42.70
2018-02-19T15:10:36.098Z,52.70
2018-02-19T15:13:03.582Z,43.60
2018-02-19T15:15:31.057Z,41.37
2018-02-19T15:17:59.295Z,41.23
2018-02-19T15:20:26.782Z,48.80
2018-02-19T15:22:55.024Z,49.10
2018-02-19T15:25:23.258Z,43.70
2018-02-19T15:27:50.735Z,45.53
2018-02-19T15:30:18.286Z,41.50
2018-02-19T15:32:45.741Z,43.00
2018-02-19T15:35:13.242Z,43.50
2018-02-19T15:37:40.715Z,42.60
2018-02-19T15:40:08.176Z,44.27
2018-02-19T15:42:36.419Z,40.97
2018-02-19T15:45:03.890Z,42.63
2018-02-19T15:47:31.366Z,41.10
2018-02-19T15:49:59.628Z,44.00
2018-02-19T15:52:27.099Z,37.97
2018-02-19T15:54:55.325Z,45.17
2018-02-19T15:57:22.814Z,42.67
2018-02-19T15:59:50.287Z,38.13
2018-02-19T16:02:18.532Z,47.43
2018-02-19T16:04:46.042Z,41.77
2018-02-19T16:07:13.553Z,42.00
2018-02-19T16:09:41.068Z,47.60
2018-02-19T16:12:08.550Z,45.00
2018-02-19T16:14:36.966Z,50.10
2018-02-19T16:17:05.932Z,43.33
2018-02-19T16:19:33.438Z,51.60
2018-02-19T16:22:00.978Z,42.77
2018-02-19T16:24:29.873Z,40.43
2018-02-19T16:26:58.123Z,49.83
2018-02-19T16:29:25.639Z,49.97
2018-02-19T16:31:53.108Z,47.53
2018-02-19T16:34:20.644Z,46.30
2018-02-19T16:36:48.120Z,40.83
2018-02-19T16:39:15.605Z,48.63
2018-02-19T16:41:43.107Z,69.70
2018-02-19T16:44:10.591Z,42.27
2018-02-19T16:46:38.867Z,47.17
2018-02-19T16:49:06.374Z,47.97
2018-02-19T16:51:35.387Z,47.10
2018-02-19T16:54:02.859Z,55.37
2018-02-19T16:56:31.390Z,47.83
2018-02-19T16:58:58.861Z,47.80
2018-02-19T17:01:27.155Z,61.87
2018-02-19T17:03:54.607Z,42.47
2018-02-19T17:06:22.084Z,50.67
2018-02-19T17:08:49.543Z,47.40
2018-02-19T17:11:17.034Z,41.60
2018-02-19T17:13:44.508Z,49.93
2018-02-19T17:16:12.087Z,42.23
2018-02-19T17:18:40.348Z,56.77
2018-02-19T17:21:08.581Z,44.13
2018-02-19T17:23:36.035Z,44.40
2018-02-19T17:26:03.584Z,49.90
2018-02-19T17:28:31.791Z,47.37
2018-02-19T17:30:59.263Z,51.67
2018-02-19T17:33:26.774Z,47.23
2018-02-19T17:35:54.240Z,49.77
2018-02-19T17:38:21.737Z,51.50
2018-02-19T17:40:49.222Z,41.90
2018-02-19T17:43:16.711Z,46.90
2018-02-19T17:45:44.231Z,44.23
2018-02-19T17:48:11.710Z,45.13
2018-02-19T17:50:39.202Z,45.77
2018-02-19T17:53:06.690Z,48.57
2018-02-19T17:55:34.945Z,42.37
2018-02-19T17:58:02.421Z,52.57
2018-02-19T18:00:31.015Z,44.40
2018-02-19T18:02:59.239Z,40.93
2018-02-19T18:05:26.698Z,48.57
2018-02-19T18:07:54.184Z,56.63
2018-02-19T18:10:22.415Z,43.87
2018-02-19T18:12:49.870Z,47.60
2018-02-19T18:15:18.322Z,43.23
2018-02-19T18:17:45.779Z,44.47
2018-02-19T18:20:15.407Z,44.13
2018-02-19T18:22:43.844Z,44.30
2018-02-19T18:25:12.077Z,55.20
2018-02-19T18:27:39.573Z,51.90
2018-02-19T18:30:08.718Z,41.43
2018-02-19T18:32:36.191Z,51.90
2018-02-19T18:35:06.705Z,50.70
2018-02-19T18:37:34.819Z,51.50
2018-02-19T18:40:03.077Z,44.77
2018-02-19T18:42:30.575Z,49.40
2018-02-19T18:44:58.045Z,48.17
2018-02-19T18:47:26.292Z,42.73
2018-02-19T18:49:54.519Z,62.43
2018-02-19T18:52:21.989Z,52.70
2018-02-19T18:54:50.040Z,53.37
2018-02-19T18:57:17.511Z,47.27
2018-02-19T18:59:44.966Z,55.87
2018-02-19T19:02:12.452Z,61.67
2018-02-19T19:04:40.691Z,50.33
2018-02-19T19:07:08.224Z,49.87
2018-02-19T19:12:35.461Z,45.73
2018-02-19T19:15:03.740Z,58.00
2018-02-19T19:17:32.041Z,51.40
2018-02-19T19:19:59.576Z,57.43
2018-02-19T19:22:27.881Z,56.87
2018-02-19T19:24:55.414Z,51.57
2018-02-19T19:27:22.892Z,58.60
2018-02-19T19:29:50.376Z,49.80
2018-02-19T19:32:17.843Z,51.47
2018-02-19T19:34:45.379Z,53.77
2018-02-19T19:37:12.859Z,56.90
2018-02-19T19:39:40.372Z,66.93
2018-02-19T19:42:07.852Z,57.90
2018-02-19T19:44:35.319Z,59.30
2018-02-19T19:47:02.793Z,56.37
2018-02-19T19:49:30.295Z,53.60
2018-02-19T19:51:57.778Z,60.30
2018-02-19T19:54:25.245Z,55.77
2018-02-19T19:56:52.747Z,53.10
2018-02-19T19:59:20.976Z,57.20
2018-02-19T20:01:48.479Z,57.23
2018-02-19T20:04:16.755Z,59.50
2018-02-19T20:06:45.134Z,56.97
2018-02-19T20:09:13.362Z,60.83
2018-02-19T20:11:40.856Z,54.90
2018-02-19T20:14:09.086Z,66.53
2018-02-19T20:16:36.560Z,66.10
2018-02-19T20:19:04.051Z,79.60
2018-02-19T20:21:32.282Z,79.33
2018-02-19T20:23:59.755Z,91.20
2018-02-19T20:26:27.268Z,89.77
2018-02-19T20:28:54.719Z,78.07
2018-02-19T20:31:22.386Z,85.53
2018-02-19T20:33:49.878Z,79.27
2018-02-19T20:36:17.359Z,72.13
2018-02-19T20:38:45.612Z,67.83
2018-02-19T20:41:13.095Z,70.63
2018-02-19T20:43:41.354Z,64.60
2018-02-19T20:46:08.843Z,60.70
2018-02-19T20:48:37.103Z,59.23
2018-02-19T20:51:05.332Z,62.00
2018-02-19T20:53:32.794Z,65.70
2018-02-19T20:56:00.291Z,57.10
2018-02-19T20:58:28.540Z,60.43
2018-02-19T21:00:56.020Z,57.33
2018-02-19T21:03:23.544Z,60.27
2018-02-19T21:05:51.010Z,52.13
2018-02-19T21:08:18.500Z,61.67
2018-02-19T21:10:46.807Z,51.73
2018-02-19T21:13:14.266Z,53.10
2018-02-19T21:15:41.747Z,55.10
2018-02-19T21:18:09.246Z,52.40
2018-02-19T21:20:37.473Z,52.40
2018-02-19T21:23:05.009Z,52.77
2018-02-19T21:25:32.475Z,55.10
2018-02-19T21:27:59.940Z,57.83
2018-02-19T21:30:27.446Z,59.90
2018-02-19T21:32:55.688Z,62.77
2018-02-19T21:35:23.174Z,62.83
2018-02-19T21:37:50.650Z,57.37
2018-02-19T21:40:18.124Z,63.70
2018-02-19T21:42:45.596Z,54.83
2018-02-19T21:45:13.086Z,68.43
2018-02-19T21:47:41.220Z,59.87
2018-02-19T21:50:08.771Z,69.03
2018-02-19T21:52:36.250Z,54.60
2018-02-19T21:55:03.724Z,60.87
2018-02-19T21:57:31.191Z,60.03
2018-02-19T21:59:58.674Z,57.40
2018-02-19T22:02:26.150Z,55.33
2018-02-19T22:04:54.036Z,59.07
2018-02-19T22:07:21.515Z,64.90
2018-02-19T22:09:48.982Z,59.80
2018-02-19T22:12:16.455Z,61.90
2018-02-19T22:14:44.716Z,67.63
2018-02-19T22:17:12.174Z,69.10
2018-02-19T22:19:40.435Z,59.40
2018-02-19T22:22:07.904Z,65.27
2018-02-19T22:24:36.874Z,61.40
2018-02-19T22:27:04.354Z,65.13
2018-02-19T22:29:31.878Z,61.77
2018-02-19T22:31:59.342Z,56.57
2018-02-19T22:34:26.822Z,70.10
2018-02-19T22:36:55.088Z,68.13
2018-02-19T22:39:22.560Z,62.40
2018-02-19T22:41:50.806Z,58.40
2018-02-19T22:44:18.301Z,58.60
2018-02-19T22:46:46.523Z,59.50
2018-02-19T22:49:14.004Z,61.07
2018-02-19T22:51:41.473Z,68.33
2018-02-19T22:54:08.977Z,62.97
2018-02-19T22:56:36.464Z,59.83
2018-02-19T22:59:03.926Z,55.67
2018-02-19T23:01:31.518Z,64.60
2018-02-19T23:03:59.760Z,58.03
2018-02-19T23:06:27.248Z,58.57
2018-02-19T23:08:55.470Z,58.13
2018-02-19T23:11:22.943Z,61.77
2018-02-19T23:13:50.423Z,64.13
2018-02-19T23:16:17.895Z,67.43
2018-02-19T23:18:46.132Z,62.47
2018-02-19T23:21:13.623Z,50.97
2018-02-19T23:23:41.098Z,53.47
2018-02-19T23:26:08.574Z,61.83
2018-02-19T23:28:36.067Z,63.00
2018-02-19T23:31:03.567Z,55.63
2018-02-19T23:33:30.994Z,65.10
2018-02-19T23:35:58.487Z,69.07
2018-02-19T23:38:26.006Z,71.67
2018-02-19T23:40:53.504Z,54.67
2018-02-19T23:43:20.962Z,54.73
2018-02-19T23:45:48.436Z,56.47
2018-02-19T23:48:15.937Z,59.10
2018-02-19T23:50:44.207Z,45.90
2018-02-19T23:53:11.666Z,58.50
2018-02-19T23:55:39.201Z,57.70
2018-02-19T23:58:06.626Z,56.40
